Time;durP1;ratioP1;P1;durP2;ratioP2;P2;SDS_P1;SDS_P2;PMS_P1;PMS_P2;Temp;Humidity;BMP_temperature;BMP_pressure;BME280_temperature;BME280_humidity;BME280_pressure;Samples;Min_cycle;Max_cycle;Signal;HPM_P1;HPM_P2
2022/05/20 00:01:14;;;;;;;5.70;2.20;;;;;;;16.31;31.71;99486.02;105299;1284;99440;-66
2022/05/20 00:03:44;;;;;;;10.20;2.80;;;;;;;16.31;31.70;99484.60;105179;1284;108106;-65
2022/05/20 00:06:14;;;;;;;10.10;2.70;;;;;;;16.29;31.82;99480.12;105233;1284;97731;-66
2022/05/20 00:08:45;;;;;;;5.50;2.10;;;;;;;16.29;31.89;99480.89;105205;1287;98552;-66
2022/05/20 00:11:13;;;;;;;6.50;2.40;;;;;;;16.28;31.85;99484.89;105081;1285;113563;-67
2022/05/20 00:13:45;;;;;;;4.50;1.90;;;;;;;16.26;32.09;99480.77;105216;1284;98012;-66
2022/05/20 00:16:15;;;;;;;7.90;2.40;;;;;;;16.26;32.03;99477.95;105230;1284;107817;-67
2022/05/20 00:18:50;;;;;;;7.70;2.70;;;;;;;16.23;32.11;99472.23;105138;1284;99261;-67
2022/05/20 00:21:18;;;;;;;5.50;1.90;;;;;;;16.20;32.16;99473.42;105324;1284;97737;-66
2022/05/20 00:23:48;;;;;;;10.50;3.00;;;;;;;16.16;32.18;99475.59;105159;1284;113423;-67
2022/05/20 00:26:16;;;;;;;7.10;2.10;;;;;;;16.12;32.23;99467.70;105214;1284;99884;-67
2022/05/20 00:28:48;;;;;;;3.80;1.90;;;;;;;16.11;32.33;99463.54;105175;1284;108286;-66
2022/05/20 00:31:24;;;;;;;5.90;2.50;;;;;;;16.10;32.33;99460.92;105055;1285;99271;-65
2022/05/20 00:33:54;;;;;;;4.10;2.10;;;;;;;16.07;32.36;99460.25;105282;1284;99252;-66
2022/05/20 00:36:23;;;;;;;7.70;2.20;;;;;;;16.05;32.42;99463.28;105220;1284;113272;-66
2022/05/20 00:38:51;;;;;;;6.80;2.10;;;;;;;16.03;32.40;99459.04;105224;1284;96986;-66
2022/05/20 00:41:24;;;;;;;7.80;2.70;;;;;;;16.01;32.54;99462.59;105239;1284;107902;-66
2022/05/20 00:43:53;;;;;;;9.50;2.90;;;;;;;16.00;32.56;99466.45;105199;1284;97628;-66
2022/05/20 00:46:26;;;;;;;7.60;2.50;;;;;;;15.97;32.68;99462.21;105048;1286;98806;-65
2022/05/20 00:48:56;;;;;;;10.50;2.60;;;;;;;15.93;32.65;99465.59;105242;1284;113098;-66
2022/05/20 00:51:31;;;;;;;8.90;2.30;;;;;;;15.89;32.64;99466.17;105231;1284;99228;-66
2022/05/20 00:54:06;;;;;;;7.40;2.40;;;;;;;15.84;32.82;99470.49;105230;1284;108426;-66
2022/05/20 00:56:49;;;;;;;6.30;2.20;;;;;;;15.80;32.78;99472.27;105235;1284;99278;-66
2022/05/20 00:59:25;;;;;;;3.90;2.00;;;;;;;15.77;32.91;99473.94;105235;1284;99250;-66
2022/05/20 01:02:01;;;;;;;6.60;2.20;;;;;;;15.76;32.95;99469.60;105267;1284;112727;-67
2022/05/20 01:04:34;;;;;;;3.50;1.90;;;;;;;15.74;33.04;99468.09;105199;1284;99347;-66
2022/05/20 01:07:07;;;;;;;4.20;2.00;;;;;;;15.72;33.09;99461.48;105270;1284;107816;-66
2022/05/20 01:09:40;;;;;;;10.90;2.90;;;;;;;15.71;33.06;99458.26;105198;1284;99288;-66
2022/05/20 01:12:11;;;;;;;4.60;2.20;;;;;;;15.67;33.13;99460.20;105163;1284;99323;-66
2022/05/20 01:14:40;;;;;;;7.10;2.60;;;;;;;15.66;33.25;99461.73;105062;1285;112779;-66
2022/05/20 01:17:10;;;;;;;5.90;2.50;;;;;;;15.62;33.20;99462.77;105232;1284;97881;-66
2022/05/20 01:19:46;;;;;;;6.80;2.20;;;;;;;15.60;33.27;99460.61;105144;1284;108125;-65
2022/05/20 01:22:33;;;;;;;6.70;2.60;;;;;;;15.58;33.30;99453.44;105227;1284;97877;-66
2022/05/20 01:25:04;;;;;;;7.70;2.30;;;;;;;15.58;33.41;99452.76;105330;1284;99316;-65
2022/05/20 01:27:36;;;;;;;6.10;2.50;;;;;;;15.55;33.38;99447.98;105273;1285;112770;-66
2022/05/20 01:30:11;;;;;;;8.40;2.20;;;;;;;15.53;33.46;99448.38;105227;1284;97991;-66
2022/05/20 01:32:40;;;;;;;7.90;2.30;;;;;;;15.51;33.51;99450.18;105126;1286;108094;-67
2022/05/20 01:35:18;;;;;;;7.10;2.30;;;;;;;15.50;33.53;99448.12;105210;1285;99347;-66
2022/05/20 01:37:46;;;;;;;5.70;2.60;;;;;;;15.49;33.56;99446.36;105288;1285;99239;-65
2022/05/20 01:40:16;;;;;;;4.30;2.30;;;;;;;15.47;33.60;99447.25;105224;1285;114171;-64
2022/05/20 01:42:55;;;;;;;7.00;2.30;;;;;;;15.46;33.67;99448.62;105230;1284;99930;-65
2022/05/20 01:45:37;;;;;;;5.00;2.10;;;;;;;15.45;33.76;99446.39;105275;1284;108504;-67
2022/05/20 01:48:34;;;;;;;4.50;2.40;;;;;;;15.42;33.75;99450.55;105258;1284;99285;-66
2022/05/20 01:51:08;;;;;;;7.60;2.30;;;;;;;15.38;33.82;99451.39;105299;1284;99239;-66
2022/05/20 01:53:50;;;;;;;7.60;2.40;;;;;;;15.35;33.82;99448.08;105169;1285;113479;-66
2022/05/20 01:56:34;;;;;;;8.10;2.70;;;;;;;15.31;33.95;99445.89;105047;1285;99429;-68
2022/05/20 01:59:02;;;;;;;;;;;;;;;15.29;33.97;99445.06;105203;1285;108357;-66
2022/05/20 02:01:56;;;;;;;7.20;2.70;;;;;;;15.24;34.12;99444.59;105223;1285;99270;-66
2022/05/20 02:04:43;;;;;;;7.30;2.70;;;;;;;15.22;34.05;99441.52;105289;1284;99212;-66
2022/05/20 02:07:20;;;;;;;7.20;2.20;;;;;;;15.20;34.15;99441.38;105206;1285;112580;-66
2022/05/20 02:10:16;;;;;;;9.00;2.60;;;;;;;15.19;34.13;99438.23;105257;1285;99325;-66
2022/05/20 02:12:50;;;;;;;7.70;2.50;;;;;;;15.18;34.26;99437.27;105191;1285;108381;-65
2022/05/20 02:15:38;;;;;;;5.60;2.30;;;;;;;15.16;34.23;99438.45;105239;1285;99369;-66
2022/05/20 02:18:14;;;;;;;9.10;2.30;;;;;;;15.13;34.28;99431.02;105286;1285;99369;-66
2022/05/20 02:21:03;;;;;;;8.20;2.20;;;;;;;15.11;34.38;99428.31;105307;1284;112499;-67
2022/05/20 02:23:38;;;;;;;11.30;2.70;;;;;;;15.09;34.34;99428.73;105181;1285;99382;-66
2022/05/20 02:26:13;;;;;;;8.90;2.80;;;;;;;15.06;34.41;99431.63;105259;1285;107507;-68
2022/05/20 02:29:03;;;;;;;6.10;2.30;;;;;;;15.04;34.39;99427.75;105102;1285;99246;-66
2022/05/20 02:31:39;;;;;;;5.20;2.10;;;;;;;15.01;34.50;99423.47;105276;1284;96750;-65
2022/05/20 02:34:07;;;;;;;10.50;2.70;;;;;;;15.00;34.57;99424.87;105139;1285;111766;-65
2022/05/20 02:36:41;;;;;;;6.30;2.60;;;;;;;14.99;34.49;99422.44;105197;1284;97814;-66
2022/05/20 02:39:15;;;;;;;8.00;2.10;;;;;;;14.98;34.62;99424.45;105245;1284;106875;-66
2022/05/20 02:41:48;;;;;;;9.20;2.30;;;;;;;14.99;34.61;99422.41;105196;1283;99276;-66
2022/05/20 02:44:21;;;;;;;9.70;3.30;;;;;;;15.00;34.71;99424.33;105192;1284;99255;-66
2022/05/20 02:46:50;;;;;;;5.50;2.40;;;;;;;15.00;34.64;99425.73;105207;1284;113453;-66
2022/05/20 02:49:18;;;;;;;11.10;2.60;;;;;;;15.01;34.70;99427.64;105200;1284;99221;-66
2022/05/20 02:51:47;;;;;;;4.30;2.10;;;;;;;15.00;34.77;99426.77;105088;1284;108681;-66
2022/05/20 02:54:15;;;;;;;8.20;2.20;;;;;;;15.00;34.83;99425.36;105122;1284;97917;-67
2022/05/20 02:56:44;;;;;;;9.00;2.30;;;;;;;15.00;34.77;99426.11;105246;1284;99830;-66
2022/05/20 03:04:48;;;;;;;4.30;2.10;;;;;;;14.97;35.05;99427.08;105213;1284;108387;-65
2022/05/20 03:07:17;;;;;;;9.60;2.40;;;;;;;14.96;35.03;99421.58;105210;1284;99413;-65
2022/05/20 03:09:45;;;;;;;6.00;2.30;;;;;;;14.95;35.03;99423.82;105217;1284;99442;-67
2022/05/20 03:12:15;;;;;;;6.50;2.60;;;;;;;14.95;35.09;99422.63;105287;1284;113001;-65
2022/05/20 03:14:44;;;;;;;6.00;2.60;;;;;;;14.95;35.14;99431.48;105211;1284;100100;-64
2022/05/20 03:17:12;;;;;;;10.10;2.70;;;;;;;14.96;35.18;99436.11;105238;1284;108190;-67
2022/05/20 03:19:40;;;;;;;10.90;2.80;;;;;;;14.95;35.20;99437.25;105228;1284;99256;-68
2022/05/20 03:22:09;;;;;;;7.40;2.70;;;;;;;14.96;35.27;99438.96;105285;1284;99184;-66
2022/05/20 03:24:39;;;;;;;5.20;2.50;;;;;;;14.93;35.29;99445.45;105208;1284;113316;-67
2022/05/20 03:27:08;;;;;;;6.70;2.40;;;;;;;14.89;35.36;99442.52;105231;1284;99121;-66
2022/05/20 03:29:38;;;;;;;8.40;2.30;;;;;;;14.89;35.36;99444.16;105163;1284;108330;-67
2022/05/20 03:32:08;;;;;;;5.80;2.50;;;;;;;14.87;35.34;99445.89;105147;1284;99336;-66
2022/05/20 03:34:38;;;;;;;6.50;2.30;;;;;;;14.86;35.40;99444.94;105208;1284;96698;-67
2022/05/20 03:37:06;;;;;;;7.10;2.60;;;;;;;14.84;35.45;99449.40;105241;1284;112730;-67
2022/05/20 03:39:35;;;;;;;9.00;2.30;;;;;;;14.84;35.56;99452.28;105177;1284;99323;-67
2022/05/20 03:42:04;;;;;;;6.20;2.60;;;;;;;14.82;35.50;99460.27;105203;1284;108957;-67
2022/05/20 03:44:34;;;;;;;7.10;2.60;;;;;;;14.81;35.60;99463.08;104576;1284;917044;-66
2022/05/20 03:47:04;;;;;;;5.50;2.30;;;;;;;14.79;35.62;99465.17;105172;1284;96537;-66
2022/05/20 03:49:32;;;;;;;7.20;2.70;;;;;;;14.79;35.68;99462.14;105242;1284;112853;-66
2022/05/20 03:52:00;;;;;;;7.10;2.20;;;;;;;14.81;35.78;99461.07;105224;1284;99271;-64
2022/05/20 03:54:32;;;;;;;5.70;2.70;;;;;;;14.83;35.73;99459.29;105191;1284;108480;-67
2022/05/20 03:57:03;;;;;;;7.30;2.60;;;;;;;14.84;35.88;99454.03;105216;1284;98382;-66
2022/05/20 03:59:35;;;;;;;7.50;2.30;;;;;;;14.86;35.91;99452.11;105228;1284;99266;-67
2022/05/20 04:02:07;;;;;;;6.30;2.70;;;;;;;14.88;35.91;99453.33;105173;1284;112746;-66
2022/05/20 04:04:49;;;;;;;9.80;2.50;;;;;;;14.91;35.93;99449.73;105179;1284;97854;-66
2022/05/20 04:07:25;;;;;;;3.90;2.10;;;;;;;14.93;36.05;99448.11;105169;1284;108393;-67
2022/05/20 04:09:54;;;;;;;7.10;2.20;;;;;;;14.94;36.06;99446.45;105076;1284;99359;-68
2022/05/20 04:12:27;;;;;;;7.30;2.70;;;;;;;14.96;36.15;99443.57;104962;1285;99245;-66
2022/05/20 04:14:57;;;;;;;10.10;2.80;;;;;;;14.99;36.14;99438.52;104847;1285;112560;-67
2022/05/20 04:17:27;;;;;;;8.50;2.50;;;;;;;15.01;36.08;99441.90;105258;1284;99976;-66
2022/05/20 04:19:59;;;;;;;6.60;2.50;;;;;;;15.03;36.19;99441.39;105296;1283;108395;-67
2022/05/20 04:22:30;;;;;;;8.00;2.40;;;;;;;15.05;36.22;99438.73;105036;1285;99321;-68
2022/05/20 04:25:01;;;;;;;12.10;2.40;;;;;;;15.08;36.19;99434.55;105106;1285;97328;-68
2022/05/20 04:27:31;;;;;;;10.90;2.50;;;;;;;15.09;36.31;99429.83;105105;1285;113461;-69
2022/05/20 04:30:02;;;;;;;6.10;2.70;;;;;;;15.10;36.41;99428.60;105208;1284;100321;-67
2022/05/20 04:32:32;;;;;;;8.50;2.50;;;;;;;15.13;36.44;99428.33;105134;1285;108337;-68
2022/05/20 04:35:03;;;;;;;8.70;2.80;;;;;;;15.18;36.42;99430.46;105181;1285;99399;-67
2022/05/20 04:37:32;;;;;;;6.00;2.80;;;;;;;15.19;36.44;99432.69;105315;1284;99818;-64
2022/05/20 04:40:01;;;;;;;8.80;2.80;;;;;;;15.20;36.50;99430.48;105353;1284;113375;-65
2022/05/20 04:48:09;;;;;;;8.90;2.90;;;;;;;15.29;36.63;99439.50;105144;1285;97724;-66
2022/05/20 04:50:37;;;;;;;9.20;2.90;;;;;;;15.35;36.74;99447.08;105148;1285;99247;-67
2022/05/20 04:54:49;;;;;;;9.80;2.70;;;;;;;15.39;36.77;99443.50;105128;1285;113151;-66
2022/05/20 04:55:59;;;;;;;15.10;2.70;;;;;;;15.44;36.80;99443.45;105212;1285;99345;-68
2022/05/20 04:58:30;;;;;;;19.90;3.70;;;;;;;15.47;36.84;99438.66;105161;1285;108633;-65
2022/05/20 05:00:58;;;;;;;8.00;2.80;;;;;;;15.50;36.75;99441.43;105311;1284;99388;-68
2022/05/20 05:03:26;;;;;;;12.20;3.20;;;;;;;15.54;36.87;99444.92;105193;1285;96771;-68
2022/05/20 05:05:54;;;;;;;8.50;2.60;;;;;;;15.57;36.86;99442.14;105155;1285;112999;-66
2022/05/20 05:08:25;;;;;;;14.10;2.70;;;;;;;15.59;36.93;99446.55;105194;1285;99340;-66
2022/05/20 05:10:53;;;;;;;15.60;3.00;;;;;;;15.63;36.88;99451.20;105115;1285;108466;-67
2022/05/20 05:13:22;;;;;;;10.00;3.00;;;;;;;15.66;36.92;99446.84;105135;1285;99255;-66
2022/05/20 05:15:50;;;;;;;7.90;2.90;;;;;;;15.70;36.93;99450.46;105182;1285;97765;-67
2022/05/20 05:18:23;;;;;;;8.20;2.60;;;;;;;15.73;36.91;99445.36;105171;1285;113425;-67
2022/05/20 05:20:52;;;;;;;11.60;3.00;;;;;;;15.75;36.96;99433.52;105236;1285;99337;-65
2022/05/20 05:23:27;;;;;;;7.20;2.90;;;;;;;15.79;37.02;99425.89;105235;1284;108361;-66
2022/05/20 05:25:55;;;;;;;12.70;3.20;;;;;;;15.85;37.04;99427.68;105266;1284;96727;-66
2022/05/20 05:28:25;;;;;;;10.30;3.00;;;;;;;15.92;37.11;99427.83;105389;1284;99224;-66
2022/05/20 05:30:58;;;;;;;15.50;3.50;;;;;;;15.99;37.10;99427.37;105339;1284;112936;-67
2022/05/20 05:33:28;;;;;;;12.60;3.00;;;;;;;16.05;37.19;99416.77;105289;1284;99364;-67
2022/05/20 05:35:58;;;;;;;12.80;3.20;;;;;;;16.13;37.26;99412.84;105110;1287;107785;-68
2022/05/20 05:38:26;;;;;;;18.80;3.10;;;;;;;16.21;37.25;99413.38;105311;1284;99995;-67
2022/05/20 05:40:54;;;;;;;15.60;3.20;;;;;;;16.29;37.34;99411.83;105200;1285;99190;-65
2022/05/20 05:43:22;;;;;;;15.60;3.60;;;;;;;16.36;37.20;99415.81;105134;1285;113229;-66
2022/05/20 05:45:53;;;;;;;9.60;3.00;;;;;;;16.44;37.22;99421.02;105202;1285;97722;-66
2022/05/20 05:48:21;;;;;;;13.20;3.30;;;;;;;16.52;37.28;99428.13;105133;1285;108388;-67
2022/05/20 05:50:51;;;;;;;11.90;2.70;;;;;;;16.61;37.30;99432.00;105154;1285;99296;-67
2022/05/20 05:53:25;;;;;;;9.10;2.60;;;;;;;16.71;37.26;99428.08;105177;1285;99290;-67
2022/05/20 05:55:58;;;;;;;10.90;2.90;;;;;;;16.81;37.32;99419.41;105189;1285;112852;-64
2022/05/20 05:58:31;;;;;;;11.20;2.90;;;;;;;16.93;37.28;99413.97;105234;1285;97713;-68
2022/05/20 06:00:59;;;;;;;8.30;3.10;;;;;;;17.08;37.40;99410.66;105035;1287;108957;-68
2022/05/20 06:03:28;;;;;;;6.50;2.90;;;;;;;17.23;37.35;99412.11;105424;1284;99816;-67
2022/05/20 06:05:59;;;;;;;11.60;2.80;;;;;;;17.38;37.46;99407.13;105182;1285;99800;-68
2022/05/20 06:08:27;;;;;;;12.40;2.90;;;;;;;17.52;37.22;99398.81;105347;1284;113652;-67
2022/05/20 06:11:00;;;;;;;7.40;2.70;;;;;;;17.66;37.23;99398.70;105156;1285;99766;-70
2022/05/20 06:13:32;;;;;;;15.20;2.80;;;;;;;17.80;37.25;99402.79;105256;1285;108406;-64
2022/05/20 06:16:00;;;;;;;16.30;3.00;;;;;;;17.92;37.28;99398.34;105293;1284;99131;-66
2022/05/20 06:18:34;;;;;;;13.90;3.10;;;;;;;18.03;37.09;99404.45;105336;1284;97952;-66
2022/05/20 06:21:04;;;;;;;13.60;3.80;;;;;;;18.16;37.33;99411.48;105450;1284;113416;-66
2022/05/20 06:23:34;;;;;;;11.20;3.00;;;;;;;18.28;37.32;99407.73;105269;1285;99331;-71
2022/05/20 06:26:08;;;;;;;8.10;2.60;;;;;;;18.43;37.30;99399.11;105281;1284;108317;-66
2022/05/20 06:28:49;;;;;;;11.00;2.60;;;;;;;18.67;36.96;99397.04;105380;1284;99224;-67
2022/05/20 06:31:17;;;;;;;8.80;2.90;;;;;;;18.90;37.05;99393.84;105189;1285;99351;-65
2022/05/20 06:33:47;;;;;;;9.60;2.80;;;;;;;18.99;37.07;99389.19;105447;1284;114123;-66
2022/05/20 06:41:56;;;;;;;13.10;2.90;;;;;;;19.18;37.18;99386.97;105392;1284;99363;-66
2022/05/20 06:44:24;;;;;;;15.60;3.10;;;;;;;19.22;37.03;99389.49;105354;1284;97902;-67
2022/05/20 06:46:55;;;;;;;12.80;3.10;;;;;;;19.34;37.16;99392.59;105372;1284;112634;-62
2022/05/20 06:49:26;;;;;;;15.00;3.10;;;;;;;19.43;36.95;99393.45;105340;1284;99331;-66
2022/05/20 06:51:59;;;;;;;10.90;3.10;;;;;;;19.47;37.06;99396.23;105270;1285;107396;-66
2022/05/20 06:54:54;;;;;;;6.80;2.80;;;;;;;19.55;36.90;99391.48;105231;1285;99457;-68
2022/05/20 06:57:25;;;;;;;14.50;3.90;;;;;;;19.70;36.82;99390.12;105331;1285;99232;-68
2022/05/20 06:59:55;;;;;;;12.50;3.60;;;;;;;20.93;36.03;99390.32;105380;1284;113380;-66
2022/05/20 07:02:24;;;;;;;11.90;3.20;;;;;;;23.14;35.28;99390.11;105453;1283;96653;-67
2022/05/20 07:04:57;;;;;;;11.30;2.60;;;;;;;25.34;35.48;99388.92;105333;1284;108317;-66
2022/05/20 07:07:28;;;;;;;14.50;2.90;;;;;;;27.30;35.57;99382.21;105336;1284;96606;-67
2022/05/20 07:09:59;;;;;;;12.10;2.90;;;;;;;28.79;34.60;99374.16;105238;1284;96629;-66
2022/05/20 07:12:27;;;;;;;8.70;2.30;;;;;;;29.97;34.44;99374.33;105366;1284;113479;-67
2022/05/20 07:15:00;;;;;;;12.90;3.00;;;;;;;30.90;34.61;99375.92;105463;1284;99224;-65
2022/05/20 07:17:36;;;;;;;7.90;2.30;;;;;;;31.86;34.16;99368.66;105276;1285;108405;-68
2022/05/20 07:20:10;;;;;;;13.50;2.90;;;;;;;32.58;33.57;99364.27;105134;1287;96731;-67
2022/05/20 07:22:39;;;;;;;11.20;3.40;;;;;;;33.47;33.56;99366.17;105282;1285;96626;-66
2022/05/20 07:25:11;;;;;;;9.60;3.00;;;;;;;34.37;33.11;99358.33;105445;1284;112228;-66
2022/05/20 07:27:40;;;;;;;15.90;2.90;;;;;;;35.54;32.59;99359.98;105451;1284;97086;-67
2022/05/20 07:30:11;;;;;;;11.50;3.20;;;;;;;35.94;31.79;99355.54;105315;1284;111218;-67
2022/05/20 07:32:39;;;;;;;10.00;3.10;;;;;;;35.60;31.43;99352.39;105317;1284;97752;-66
2022/05/20 07:35:10;;;;;;;12.10;2.70;;;;;;;35.12;31.41;99352.85;105378;1284;96647;-68
2022/05/20 07:37:38;;;;;;;10.20;3.10;;;;;;;35.02;30.63;99351.96;105256;1284;113402;-67
2022/05/20 07:40:10;;;;;;;13.10;2.80;;;;;;;35.10;30.73;99354.95;105246;1284;99258;-68
2022/05/20 07:42:38;;;;;;;8.40;2.70;;;;;;;34.86;30.13;99347.05;105240;1284;108686;-69
2022/05/20 07:45:07;;;;;;;12.20;2.80;;;;;;;34.50;29.96;99356.48;105236;1285;99267;-67
2022/05/20 07:47:36;;;;;;;10.00;2.80;;;;;;;34.16;29.46;99353.33;105259;1285;99109;-66
2022/05/20 07:50:06;;;;;;;12.30;3.50;;;;;;;33.77;28.72;99351.69;105315;1285;112812;-69
2022/05/20 07:55:27;;;;;;;12.00;3.20;;;;;;;32.88;27.58;99340.06;105168;1284;108751;-69
2022/05/20 07:57:55;;;;;;;11.40;2.90;;;;;;;31.76;27.74;99335.92;105347;1284;99958;-67
2022/05/20 08:00:24;;;;;;;9.20;2.80;;;;;;;31.77;27.36;99334.73;105321;1284;99407;-67
2022/05/20 08:02:57;;;;;;;6.70;3.00;;;;;;;32.83;26.96;99325.10;105288;1283;113397;-67
2022/05/20 08:05:27;;;;;;;6.20;2.60;;;;;;;33.93;26.65;99325.52;105330;1284;99838;-68
2022/05/20 08:08:01;;;;;;;10.20;2.80;;;;;;;34.52;26.81;99320.27;105201;1284;107804;-67
2022/05/20 08:10:33;;;;;;;7.40;2.30;;;;;;;34.53;27.16;99322.94;105258;1284;98446;-67
2022/05/20 08:13:03;;;;;;;10.20;2.70;;;;;;;34.69;26.68;99319.19;105450;1284;97887;-67
2022/05/20 08:15:31;;;;;;;10.60;3.00;;;;;;;34.87;26.48;99317.60;105321;1284;112974;-70
2022/05/20 08:18:00;;;;;;;6.40;2.90;;;;;;;34.99;26.28;99318.13;105127;1285;99012;-67
2022/05/20 08:20:30;;;;;;;10.60;2.70;;;;;;;34.86;26.11;99316.80;105297;1284;107862;-68
2022/05/20 08:23:00;;;;;;;13.50;3.10;;;;;;;34.53;25.99;99315.20;105023;1284;99860;-67
2022/05/20 08:25:29;;;;;;;6.00;2.50;;;;;;;34.01;25.92;99318.80;105397;1284;96626;-67
2022/05/20 08:27:58;;;;;;;13.20;2.80;;;;;;;33.34;25.29;99321.38;104988;1284;113371;-68
2022/05/20 08:30:27;;;;;;;9.90;2.60;;;;;;;32.88;25.32;99320.09;105058;1284;97145;-68
2022/05/20 08:32:56;;;;;;;7.90;3.00;;;;;;;32.58;25.15;99322.93;105315;1284;108230;-67
2022/05/20 08:35:27;;;;;;;12.10;2.80;;;;;;;32.20;24.97;99320.17;105365;1284;99382;-67
2022/05/20 08:37:56;;;;;;;12.40;2.90;;;;;;;31.81;24.85;99321.89;105378;1284;99130;-67
2022/05/20 08:40:34;;;;;;;9.90;2.70;;;;;;;31.49;24.74;99317.48;105313;1284;112344;-68
2022/05/20 08:43:05;;;;;;;10.40;2.50;;;;;;;31.14;24.67;99318.80;105369;1284;99733;-67
2022/05/20 08:45:34;;;;;;;5.60;2.40;;;;;;;30.72;24.34;99323.36;105375;1284;107633;-64
2022/05/20 08:48:06;;;;;;;5.70;2.70;;;;;;;30.53;24.36;99328.99;105366;1284;99323;-67
2022/05/20 08:50:48;;;;;;;11.20;3.20;;;;;;;30.61;24.26;99324.73;105393;1284;99243;-67
2022/05/20 08:53:30;;;;;;;10.80;2.90;;;;;;;30.59;24.30;99320.49;105433;1284;113004;-66
2022/05/20 08:56:06;;;;;;;8.20;3.30;;;;;;;30.54;24.11;99322.27;104974;1284;97044;-69
2022/05/20 08:58:38;;;;;;;8.40;2.70;;;;;;;30.74;24.29;99312.98;105195;1284;107421;-70
2022/05/20 09:01:08;;;;;;;7.60;2.60;;;;;;;31.07;24.26;99315.33;105173;1284;99962;-69
2022/05/20 09:03:36;;;;;;;8.30;2.50;;;;;;;31.15;24.32;99318.92;105165;1284;99266;-69
2022/05/20 09:06:13;;;;;;;11.50;3.10;;;;;;;31.16;24.05;99320.33;105370;1284;113665;-69
2022/05/20 09:08:41;;;;;;;8.70;2.90;;;;;;;31.06;24.10;99314.41;105404;1284;97695;-69
2022/05/20 09:11:17;;;;;;;10.40;2.80;;;;;;;30.80;24.02;99309.95;105324;1284;107807;-69
2022/05/20 09:16:34;;;;;;;10.80;2.60;;;;;;;30.17;24.21;99309.50;105353;1283;99788;-69
2022/05/20 09:19:27;;;;;;;7.40;3.00;;;;;;;29.91;24.01;99317.54;105376;1284;113558;-70
2022/05/20 09:22:06;;;;;;;11.70;3.00;;;;;;;29.54;23.97;99316.48;105408;1284;99216;-70
2022/05/20 09:24:40;;;;;;;7.10;2.60;;;;;;;29.38;23.99;99316.04;105323;1284;107711;-69
2022/05/20 09:27:13;;;;;;;15.90;2.80;;;;;;;29.13;23.97;99319.58;105216;1284;99213;-63
2022/05/20 09:29:54;;;;;;;5.50;2.70;;;;;;;29.01;24.11;99320.18;105157;1284;98116;-64
2022/05/20 09:33:06;;;;;;;5.40;2.60;;;;;;;28.78;24.22;99316.56;105268;1284;113393;-68
2022/05/20 09:35:34;;;;;;;5.30;2.60;;;;;;;28.53;24.06;99310.33;105356;1283;100150;-65
2022/05/20 09:38:32;;;;;;;5.30;2.80;;;;;;;28.28;24.19;99303.71;105237;1285;109322;-66
2022/05/20 09:41:17;;;;;;;11.60;2.80;;;;;;;28.06;24.08;99300.77;105368;1284;99252;-68
2022/05/20 09:43:59;;;;;;;9.80;3.20;;;;;;;27.90;24.36;99297.39;105253;1284;99318;-65
2022/05/20 09:46:39;;;;;;;11.10;3.00;;;;;;;27.81;24.16;99294.16;105255;1284;112784;-68
2022/05/20 09:49:40;;;;;;;11.90;3.20;;;;;;;27.55;24.37;99289.55;105261;1283;99270;-65
2022/05/20 09:52:29;;;;;;;13.10;3.50;;;;;;;27.33;24.55;99282.76;104751;1286;108851;-66
2022/05/20 09:55:00;;;;;;;7.50;2.90;;;;;;;27.15;24.65;99282.71;105312;1284;99111;-68
2022/05/20 09:57:49;;;;;;;12.30;3.50;;;;;;;26.97;24.41;99279.14;105243;1284;99364;-65
2022/05/20 10:00:26;;;;;;;11.00;3.70;;;;;;;26.81;24.74;99277.16;105214;1284;113176;-65
2022/05/20 10:03:10;;;;;;;7.40;3.10;;;;;;;26.67;24.83;99265.97;105315;1282;99267;-66
2022/05/20 10:06:11;;;;;;;8.20;2.70;;;;;;;26.68;24.98;99265.20;105241;1284;107388;-66
2022/05/20 10:08:58;;;;;;;9.30;2.80;;;;;;;26.66;25.23;99263.73;105008;1284;99684;-68
2022/05/20 10:11:31;;;;;;;12.20;2.80;;;;;;;26.60;25.04;99269.00;105370;1284;99240;-67
2022/05/20 10:14:08;;;;;;;6.60;2.80;;;;;;;26.54;25.23;99269.67;105227;1284;113833;-67
2022/05/20 10:16:50;;;;;;;9.60;2.50;;;;;;;26.51;25.51;99260.45;105425;1282;99492;-67
2022/05/20 10:19:18;;;;;;;;;;;;;;;26.52;25.57;99258.75;105323;1284;108249;-67
2022/05/20 10:21:49;;;;;;;8.10;2.80;;;;;;;26.49;25.61;99258.48;105245;1284;99324;-68
2022/05/20 10:24:59;;;;;;;12.60;3.20;;;;;;;26.44;25.49;99263.30;105356;1284;99247;-65
2022/05/20 10:27:57;;;;;;;8.10;3.10;;;;;;;26.32;25.84;99261.08;105164;1284;112926;-69
2022/05/20 10:33:44;;;;;;;20.40;5.80;;;;;;;26.07;26.07;99261.13;105209;1284;108332;-69
2022/05/20 10:36:23;;;;;;;17.90;5.70;;;;;;;25.93;26.07;99265.55;105249;1284;99349;-68
2022/05/20 10:39:12;;;;;;;20.30;7.10;;;;;;;25.76;26.17;99262.76;105496;1284;97216;-68
2022/05/20 10:42:23;;;;;;;20.40;6.90;;;;;;;25.61;26.34;99261.23;105203;1284;113425;-69
2022/05/20 10:51:37;;;;;;;17.60;5.10;;;;;;;25.34;26.78;99255.36;105202;1284;97784;-68
2022/05/20 10:54:36;;;;;;;20.90;6.10;;;;;;;25.29;26.86;99247.54;105311;1284;99220;-68
2022/05/20 10:57:26;;;;;;;22.30;6.00;;;;;;;25.29;27.01;99244.61;105271;1284;113617;-68
2022/05/20 11:00:03;;;;;;;25.80;5.90;;;;;;;25.28;27.08;99246.78;105307;1284;99338;-69
2022/05/20 11:02:40;;;;;;;19.60;5.80;;;;;;;25.25;27.19;99248.42;105156;1284;108432;-68
2022/05/20 11:05:17;;;;;;;16.90;5.60;;;;;;;25.25;27.34;99243.77;105201;1285;99376;-68
2022/05/20 11:08:07;;;;;;;16.60;4.80;;;;;;;25.24;27.40;99236.53;105223;1285;96545;-70
2022/05/20 11:10:42;;;;;;;17.30;5.90;;;;;;;25.23;27.68;99237.95;105238;1284;112912;-71
2022/05/20 11:13:33;;;;;;;15.60;5.10;;;;;;;25.23;27.85;99233.48;105298;1284;99292;-68
2022/05/20 11:16:08;;;;;;;16.40;5.00;;;;;;;25.24;27.98;99236.73;105330;1284;108848;-67
2022/05/20 11:18:53;;;;;;;24.50;4.70;;;;;;;25.23;28.19;99236.64;105132;1285;98359;-67
2022/05/20 11:21:47;;;;;;;19.10;4.40;;;;;;;25.24;28.27;99237.36;105274;1284;99353;-68
2022/05/20 11:24:32;;;;;;;12.30;3.90;;;;;;;25.18;28.32;99232.09;105227;1285;114085;-68
2022/05/20 11:27:15;;;;;;;8.90;3.70;;;;;;;25.10;28.68;99225.91;105395;1284;97654;-67
2022/05/20 11:30:09;;;;;;;10.60;3.30;;;;;;;25.09;28.88;99223.67;105315;1285;108860;-67
2022/05/20 11:32:58;;;;;;;17.60;3.60;;;;;;;25.08;29.07;99221.58;105300;1284;98913;-68
2022/05/20 11:35:38;;;;;;;14.40;3.90;;;;;;;25.07;29.18;99217.98;105022;1284;99368;-69
2022/05/20 11:38:44;;;;;;;14.00;3.70;;;;;;;25.07;29.22;99219.45;105290;1282;112811;-68
2022/05/20 11:41:43;;;;;;;12.50;3.80;;;;;;;24.97;29.35;99220.29;105165;1285;99270;-67
2022/05/20 11:44:17;;;;;;;13.60;3.70;;;;;;;24.81;29.53;99213.34;105359;1284;108416;-67
2022/05/20 11:46:51;;;;;;;13.40;4.00;;;;;;;24.74;29.69;99209.20;105310;1283;99363;-68
2022/05/20 11:49:40;;;;;;;19.20;4.10;;;;;;;24.65;29.87;99208.83;105331;1284;99329;-68
2022/05/20 11:52:29;;;;;;;11.10;3.90;;;;;;;24.60;30.01;99210.39;105321;1284;113305;-67
2022/05/20 11:55:10;;;;;;;18.10;4.30;;;;;;;24.54;30.20;99203.61;105235;1284;99319;-70
2022/05/20 11:57:46;;;;;;;15.60;4.20;;;;;;;24.48;30.38;99212.70;105268;1284;107761;-70
2022/05/20 12:00:19;;;;;;;15.00;4.20;;;;;;;24.46;30.58;99217.96;105239;1284;99316;-68
2022/05/20 12:03:04;;;;;;;25.40;5.00;;;;;;;24.40;30.48;99220.52;105115;1285;99442;-69
2022/05/20 12:05:40;;;;;;;13.30;3.80;;;;;;;24.28;30.53;99220.54;105289;1284;113026;-68
2022/05/20 12:08:52;;;;;;;17.30;4.50;;;;;;;24.13;30.67;99228.16;105144;1285;99344;-69
2022/05/20 12:11:41;;;;;;;14.10;4.30;;;;;;;23.97;30.86;99221.36;105401;1284;109004;-67
2022/05/20 12:14:19;;;;;;;14.40;4.50;;;;;;;23.87;31.13;99217.52;105460;1284;99388;-68
2022/05/20 12:17:04;;;;;;;20.60;4.60;;;;;;;23.83;31.24;99215.59;105402;1284;99262;-68
2022/05/20 12:26:31;;;;;;;20.80;4.60;;;;;;;23.82;31.60;99213.77;105207;1284;107626;-68
2022/05/20 12:29:43;;;;;;;18.60;4.30;;;;;;;23.91;31.81;99207.84;105267;1285;99266;-68
2022/05/20 12:32:25;;;;;;;11.10;3.50;;;;;;;24.06;31.95;99202.95;105189;1285;99256;-68
2022/05/20 12:35:04;;;;;;;22.30;5.70;;;;;;;24.27;32.03;99191.44;105150;1284;112776;-67